sensor_id;sensor_type;location;lat;lon;timestamp;temperature;humidity
19680;DHT22;9989;48.962;9.182;2023-05-10T00:01:08;15.60;99.90
19680;DHT22;9989;48.962;9.182;2023-05-10T00:03:33;15.70;99.90
19680;DHT22;9989;48.962;9.182;2023-05-10T00:05:59;15.60;99.90
19680;DHT22;9989;48.962;9.182;2023-05-10T00:08:24;15.60;99.90
19680;DHT22;9989;48.962;9.182;2023-05-10T00:10:51;15.50;99.90
19680;DHT22;9989;48.962;9.182;2023-05-10T00:13:17;15.40;99.90
19680;DHT22;9989;48.962;9.182;2023-05-10T00:15:43;15.40;99.90
19680;DHT22;9989;48.962;9.182;2023-05-10T00:18:08;15.30;99.90
19680;DHT22;9989;48.962;9.182;2023-05-10T00:20:34;15.30;99.90
19680;DHT22;9989;48.962;9.182;2023-05-10T00:22:59;15.20;99.90
19680;DHT22;9989;48.962;9.182;2023-05-10T00:25:25;15.20;99.90
19680;DHT22;9989;48.962;9.182;2023-05-10T00:27:51;15.10;99.90
19680;DHT22;9989;48.962;9.182;2023-05-10T00:30:17;15.10;99.90
19680;DHT22;9989;48.962;9.182;2023-05-10T00:32:43;15.10;99.90
19680;DHT22;9989;48.962;9.182;2023-05-10T00:35:09;15.10;99.90
19680;DHT22;9989;48.962;9.182;2023-05-10T00:37:34;15.00;99.90
19680;DHT22;9989;48.962;9.182;2023-05-10T00:40:00;15.00;99.90
19680;DHT22;9989;48.962;9.182;2023-05-10T00:42:26;15.00;99.90
19680;DHT22;9989;48.962;9.182;2023-05-10T00:44:51;14.90;99.90
19680;DHT22;9989;48.962;9.182;2023-05-10T00:47:17;15.00;99.90
19680;DHT22;9989;48.962;9.182;2023-05-10T00:49:43;14.80;99.90
19680;DHT22;9989;48.962;9.182;2023-05-10T00:52:09;14.90;99.90
19680;DHT22;9989;48.962;9.182;2023-05-10T00:54:35;14.80;99.90
19680;DHT22;9989;48.962;9.182;2023-05-10T00:57:04;14.80;99.90
19680;DHT22;9989;48.962;9.182;2023-05-10T00:59:29;14.80;99.90
19680;DHT22;9989;48.962;9.182;2023-05-10T01:01:55;14.70;99.90
19680;DHT22;9989;48.962;9.182;2023-05-10T01:04:22;14.70;99.90
19680;DHT22;9989;48.962;9.182;2023-05-10T01:06:51;14.70;99.90
19680;DHT22;9989;48.962;9.182;2023-05-10T01:09:18;14.60;99.90
19680;DHT22;9989;48.962;9.182;2023-05-10T01:11:44;14.50;99.90
19680;DHT22;9989;48.962;9.182;2023-05-10T01:14:10;14.50;99.90
19680;DHT22;9989;48.962;9.182;2023-05-10T01:16:38;14.50;99.90
19680;DHT22;9989;48.962;9.182;2023-05-10T01:19:18;14.50;99.90
19680;DHT22;9989;48.962;9.182;2023-05-10T01:21:49;14.50;99.90
19680;DHT22;9989;48.962;9.182;2023-05-10T01:36:23;14.50;99.90
19680;DHT22;9989;48.962;9.182;2023-05-10T01:39:21;14.40;99.90
19680;DHT22;9989;48.962;9.182;2023-05-10T01:41:54;14.40;99.90
19680;DHT22;9989;48.962;9.182;2023-05-10T01:44:35;14.40;99.90
19680;DHT22;9989;48.962;9.182;2023-05-10T01:47:09;14.40;99.90
19680;DHT22;9989;48.962;9.182;2023-05-10T01:49:47;14.50;99.90
19680;DHT22;9989;48.962;9.182;2023-05-10T01:52:18;14.40;99.90
19680;DHT22;9989;48.962;9.182;2023-05-10T01:54:55;14.40;99.90
19680;DHT22;9989;48.962;9.182;2023-05-10T01:57:22;14.50;99.90
19680;DHT22;9989;48.962;9.182;2023-05-10T01:59:51;14.50;99.90
19680;DHT22;9989;48.962;9.182;2023-05-10T02:02:20;14.40;99.90
19680;DHT22;9989;48.962;9.182;2023-05-10T02:04:47;14.50;99.90
19680;DHT22;9989;48.962;9.182;2023-05-10T02:07:15;14.40;99.90
19680;DHT22;9989;48.962;9.182;2023-05-10T02:09:44;14.40;99.90
19680;DHT22;9989;48.962;9.182;2023-05-10T02:12:13;14.40;99.90
19680;DHT22;9989;48.962;9.182;2023-05-10T02:14:40;14.40;99.90
19680;DHT22;9989;48.962;9.182;2023-05-10T02:17:07;14.40;99.90
19680;DHT22;9989;48.962;9.182;2023-05-10T02:19:36;14.30;99.90
19680;DHT22;9989;48.962;9.182;2023-05-10T02:22:03;14.30;99.90
19680;DHT22;9989;48.962;9.182;2023-05-10T02:24:29;14.40;99.90
19680;DHT22;9989;48.962;9.182;2023-05-10T02:26:56;14.30;99.90
19680;DHT22;9989;48.962;9.182;2023-05-10T02:29:24;14.30;99.90
19680;DHT22;9989;48.962;9.182;2023-05-10T02:31:52;14.30;99.90
19680;DHT22;9989;48.962;9.182;2023-05-10T02:34:21;14.30;99.90
19680;DHT22;9989;48.962;9.182;2023-05-10T02:36:48;14.30;99.90
19680;DHT22;9989;48.962;9.182;2023-05-10T02:39:15;14.30;99.90
19680;DHT22;9989;48.962;9.182;2023-05-10T02:41:42;14.30;99.90
19680;DHT22;9989;48.962;9.182;2023-05-10T02:44:09;14.30;99.90
19680;DHT22;9989;48.962;9.182;2023-05-10T02:46:35;14.30;99.90
19680;DHT22;9989;48.962;9.182;2023-05-10T02:49:02;14.30;99.90
19680;DHT22;9989;48.962;9.182;2023-05-10T02:51:31;14.30;99.90
19680;DHT22;9989;48.962;9.182;2023-05-10T02:53:57;14.40;99.90
19680;DHT22;9989;48.962;9.182;2023-05-10T02:56:33;14.40;99.90
19680;DHT22;9989;48.962;9.182;2023-05-10T02:58:59;14.40;99.90
19680;DHT22;9989;48.962;9.182;2023-05-10T03:01:25;14.40;99.90
19680;DHT22;9989;48.962;9.182;2023-05-10T03:03:51;14.40;99.90
19680;DHT22;9989;48.962;9.182;2023-05-10T03:06:16;14.50;99.90
19680;DHT22;9989;48.962;9.182;2023-05-10T03:08:43;14.40;99.90
19680;DHT22;9989;48.962;9.182;2023-05-10T03:11:16;14.40;99.90
19680;DHT22;9989;48.962;9.182;2023-05-10T03:13:56;14.50;99.90
19680;DHT22;9989;48.962;9.182;2023-05-10T03:16:35;14.40;99.90
19680;DHT22;9989;48.962;9.182;2023-05-10T03:21:41;14.50;99.90
19680;DHT22;9989;48.962;9.182;2023-05-10T03:24:09;14.50;99.90
19680;DHT22;9989;48.962;9.182;2023-05-10T03:26:38;14.50;99.90
19680;DHT22;9989;48.962;9.182;2023-05-10T03:29:06;14.40;99.90
19680;DHT22;9989;48.962;9.182;2023-05-10T03:31:33;14.50;99.90
19680;DHT22;9989;48.962;9.182;2023-05-10T03:33:58;14.50;99.90
19680;DHT22;9989;48.962;9.182;2023-05-10T03:36:24;14.40;99.90
19680;DHT22;9989;48.962;9.182;2023-05-10T03:38:49;14.40;99.90
19680;DHT22;9989;48.962;9.182;2023-05-10T03:41:15;14.40;99.90
19680;DHT22;9989;48.962;9.182;2023-05-10T03:43:41;14.40;99.90
19680;DHT22;9989;48.962;9.182;2023-05-10T03:46:07;14.30;99.90
19680;DHT22;9989;48.962;9.182;2023-05-10T03:48:33;14.40;99.90
19680;DHT22;9989;48.962;9.182;2023-05-10T03:50:59;14.40;99.90
19680;DHT22;9989;48.962;9.182;2023-05-10T03:53:24;14.40;99.90
19680;DHT22;9989;48.962;9.182;2023-05-10T03:55:50;14.40;99.90
19680;DHT22;9989;48.962;9.182;2023-05-10T03:58:16;14.40;99.90
19680;DHT22;9989;48.962;9.182;2023-05-10T04:00:42;14.40;99.90
19680;DHT22;9989;48.962;9.182;2023-05-10T04:03:11;14.40;99.90
19680;DHT22;9989;48.962;9.182;2023-05-10T04:05:37;14.40;99.90
19680;DHT22;9989;48.962;9.182;2023-05-10T04:08:03;14.50;99.90
19680;DHT22;9989;48.962;9.182;2023-05-10T04:10:29;14.50;99.90
19680;DHT22;9989;48.962;9.182;2023-05-10T04:12:55;14.50;99.90
19680;DHT22;9989;48.962;9.182;2023-05-10T04:15:21;14.50;99.90
19680;DHT22;9989;48.962;9.182;2023-05-10T04:17:46;14.50;99.90
19680;DHT22;9989;48.962;9.182;2023-05-10T04:20:12;14.60;99.90
19680;DHT22;9989;48.962;9.182;2023-05-10T04:22:38;14.60;99.90
19680;DHT22;9989;48.962;9.182;2023-05-10T04:25:04;14.60;99.90
19680;DHT22;9989;48.962;9.182;2023-05-10T04:27:30;14.60;99.90
19680;DHT22;9989;48.962;9.182;2023-05-10T04:29:56;14.60;99.90
19680;DHT22;9989;48.962;9.182;2023-05-10T04:32:22;14.70;99.90
19680;DHT22;9989;48.962;9.182;2023-05-10T04:34:48;14.70;99.90
19680;DHT22;9989;48.962;9.182;2023-05-10T04:37:14;14.70;99.90
19680;DHT22;9989;48.962;9.182;2023-05-10T04:39:39;14.70;99.90
19680;DHT22;9989;48.962;9.182;2023-05-10T04:42:05;14.70;99.90
19680;DHT22;9989;48.962;9.182;2023-05-10T04:44:31;14.80;99.90
19680;DHT22;9989;48.962;9.182;2023-05-10T04:46:57;14.80;99.90
19680;DHT22;9989;48.962;9.182;2023-05-10T04:49:23;14.80;99.90
19680;DHT22;9989;48.962;9.182;2023-05-10T04:51:48;14.80;99.90
19680;DHT22;9989;48.962;9.182;2023-05-10T04:54:14;14.70;99.90
19680;DHT22;9989;48.962;9.182;2023-05-10T04:56:40;14.80;99.90
19680;DHT22;9989;48.962;9.182;2023-05-10T04:59:06;14.80;99.90
19680;DHT22;9989;48.962;9.182;2023-05-10T05:01:32;14.80;99.90
19680;DHT22;9989;48.962;9.182;2023-05-10T05:03:58;14.80;99.90
19680;DHT22;9989;48.962;9.182;2023-05-10T05:06:24;14.80;99.90
19680;DHT22;9989;48.962;9.182;2023-05-10T05:08:50;14.90;99.90
19680;DHT22;9989;48.962;9.182;2023-05-10T05:11:16;14.90;99.90
19680;DHT22;9989;48.962;9.182;2023-05-10T05:13:42;14.90;99.90
19680;DHT22;9989;48.962;9.182;2023-05-10T05:16:08;14.90;99.90
19680;DHT22;9989;48.962;9.182;2023-05-10T05:18:34;14.90;99.90
19680;DHT22;9989;48.962;9.182;2023-05-10T05:21:00;15.00;99.90
19680;DHT22;9989;48.962;9.182;2023-05-10T05:23:26;15.10;99.90
19680;DHT22;9989;48.962;9.182;2023-05-10T05:25:52;15.10;99.90
19680;DHT22;9989;48.962;9.182;2023-05-10T05:28:21;15.20;99.90
19680;DHT22;9989;48.962;9.182;2023-05-10T05:30:47;15.20;99.90
19680;DHT22;9989;48.962;9.182;2023-05-10T05:33:15;15.20;99.90
19680;DHT22;9989;48.962;9.182;2023-05-10T05:35:41;15.30;99.90
19680;DHT22;9989;48.962;9.182;2023-05-10T05:38:10;15.30;99.90
19680;DHT22;9989;48.962;9.182;2023-05-10T05:40:35;15.40;99.90
19680;DHT22;9989;48.962;9.182;2023-05-10T05:43:01;15.30;99.90
19680;DHT22;9989;48.962;9.182;2023-05-10T05:45:27;15.40;99.90
19680;DHT22;9989;48.962;9.182;2023-05-10T05:47:52;15.40;99.90
19680;DHT22;9989;48.962;9.182;2023-05-10T05:50:18;15.40;99.90
19680;DHT22;9989;48.962;9.182;2023-05-10T05:52:43;15.40;99.90
19680;DHT22;9989;48.962;9.182;2023-05-10T05:55:09;15.40;99.90
19680;DHT22;9989;48.962;9.182;2023-05-10T05:57:35;15.40;99.90
19680;DHT22;9989;48.962;9.182;2023-05-10T06:00:00;15.40;99.90
19680;DHT22;9989;48.962;9.182;2023-05-10T06:02:26;15.40;99.90
19680;DHT22;9989;48.962;9.182;2023-05-10T06:04:51;15.40;99.90
19680;DHT22;9989;48.962;9.182;2023-05-10T06:07:17;15.50;99.90
19680;DHT22;9989;48.962;9.182;2023-05-10T06:09:43;15.50;99.90
19680;DHT22;9989;48.962;9.182;2023-05-10T06:12:08;15.50;99.90
19680;DHT22;9989;48.962;9.182;2023-05-10T06:14:34;15.60;99.90
19680;DHT22;9989;48.962;9.182;2023-05-10T06:16:59;15.60;99.90
19680;DHT22;9989;48.962;9.182;2023-05-10T06:19:25;15.60;99.90
19680;DHT22;9989;48.962;9.182;2023-05-10T06:21:52;15.60;99.90
19680;DHT22;9989;48.962;9.182;2023-05-10T06:24:17;15.70;99.90
19680;DHT22;9989;48.962;9.182;2023-05-10T06:26:43;15.70;99.90
19680;DHT22;9989;48.962;9.182;2023-05-10T06:29:08;15.70;99.90
19680;DHT22;9989;48.962;9.182;2023-05-10T06:31:34;15.70;99.90
19680;DHT22;9989;48.962;9.182;2023-05-10T06:34:00;15.70;99.90
19680;DHT22;9989;48.962;9.182;2023-05-10T06:36:25;15.70;99.90
19680;DHT22;9989;48.962;9.182;2023-05-10T06:38:52;15.80;99.90
19680;DHT22;9989;48.962;9.182;2023-05-10T06:41:18;15.80;99.90
19680;DHT22;9989;48.962;9.182;2023-05-10T06:43:44;15.90;99.90
19680;DHT22;9989;48.962;9.182;2023-05-10T06:46:09;15.90;99.90
19680;DHT22;9989;48.962;9.182;2023-05-10T06:48:35;16.00;99.90
19680;DHT22;9989;48.962;9.182;2023-05-10T06:51:01;16.10;99.90
19680;DHT22;9989;48.962;9.182;2023-05-10T06:53:27;16.10;99.90
19680;DHT22;9989;48.962;9.182;2023-05-10T06:55:53;16.20;99.90
19680;DHT22;9989;48.962;9.182;2023-05-10T06:58:18;16.30;99.90
19680;DHT22;9989;48.962;9.182;2023-05-10T07:00:44;16.30;99.90
19680;DHT22;9989;48.962;9.182;2023-05-10T07:03:10;16.40;99.90
19680;DHT22;9989;48.962;9.182;2023-05-10T07:05:36;16.40;99.90
19680;DHT22;9989;48.962;9.182;2023-05-10T07:08:02;16.40;99.90
19680;DHT22;9989;48.962;9.182;2023-05-10T07:10:27;16.50;99.90
19680;DHT22;9989;48.962;9.182;2023-05-10T07:12:53;16.40;99.90
19680;DHT22;9989;48.962;9.182;2023-05-10T07:15:19;16.50;99.90
19680;DHT22;9989;48.962;9.182;2023-05-10T07:17:45;16.30;99.90
19680;DHT22;9989;48.962;9.182;2023-05-10T07:20:11;16.40;99.90
19680;DHT22;9989;48.962;9.182;2023-05-10T07:22:37;16.40;99.90
19680;DHT22;9989;48.962;9.182;2023-05-10T07:25:02;16.50;99.90
19680;DHT22;9989;48.962;9.182;2023-05-10T07:27:28;16.60;99.90
19680;DHT22;9989;48.962;9.182;2023-05-10T07:29:54;16.60;99.90
19680;DHT22;9989;48.962;9.182;2023-05-10T07:32:20;16.60;99.90
19680;DHT22;9989;48.962;9.182;2023-05-10T07:34:46;16.60;99.90
19680;DHT22;9989;48.962;9.182;2023-05-10T07:37:11;16.60;99.90
19680;DHT22;9989;48.962;9.182;2023-05-10T07:39:37;16.60;99.90
19680;DHT22;9989;48.962;9.182;2023-05-10T07:42:03;16.70;99.90
19680;DHT22;9989;48.962;9.182;2023-05-10T07:44:29;16.70;99.90
19680;DHT22;9989;48.962;9.182;2023-05-10T07:46:54;16.70;99.90
19680;DHT22;9989;48.962;9.182;2023-05-10T07:49:21;16.70;99.90
19680;DHT22;9989;48.962;9.182;2023-05-10T07:51:46;16.80;99.90
19680;DHT22;9989;48.962;9.182;2023-05-10T07:54:12;16.80;99.90
19680;DHT22;9989;48.962;9.182;2023-05-10T07:56:38;16.90;99.90
19680;DHT22;9989;48.962;9.182;2023-05-10T07:59:05;16.90;99.90
19680;DHT22;9989;48.962;9.182;2023-05-10T08:01:32;16.90;99.90
19680;DHT22;9989;48.962;9.182;2023-05-10T08:03:58;17.00;99.90
19680;DHT22;9989;48.962;9.182;2023-05-10T08:06:24;17.00;99.90
19680;DHT22;9989;48.962;9.182;2023-05-10T08:08:52;17.00;99.90
19680;DHT22;9989;48.962;9.182;2023-05-10T08:11:20;17.00;99.90
19680;DHT22;9989;48.962;9.182;2023-05-10T08:13:47;17.00;99.90
19680;DHT22;9989;48.962;9.182;2023-05-10T08:16:13;17.10;99.90
19680;DHT22;9989;48.962;9.182;2023-05-10T08:18:39;17.10;99.90
19680;DHT22;9989;48.962;9.182;2023-05-10T08:21:05;17.10;99.90
19680;DHT22;9989;48.962;9.182;2023-05-10T08:23:31;17.10;99.90
19680;DHT22;9989;48.962;9.182;2023-05-10T08:25:57;17.20;99.90
19680;DHT22;9989;48.962;9.182;2023-05-10T08:28:22;17.10;99.90
19680;DHT22;9989;48.962;9.182;2023-05-10T08:30:50;17.10;99.90
19680;DHT22;9989;48.962;9.182;2023-05-10T08:33:17;17.10;99.90
19680;DHT22;9989;48.962;9.182;2023-05-10T08:35:42;17.10;99.90
19680;DHT22;9989;48.962;9.182;2023-05-10T08:38:08;17.00;99.90
19680;DHT22;9989;48.962;9.182;2023-05-10T08:40:34;17.10;99.90
19680;DHT22;9989;48.962;9.182;2023-05-10T08:43:06;17.10;99.90
19680;DHT22;9989;48.962;9.182;2023-05-10T08:45:36;17.20;99.90
19680;DHT22;9989;48.962;9.182;2023-05-10T08:48:02;17.30;99.90
19680;DHT22;9989;48.962;9.182;2023-05-10T08:50:30;17.40;99.90
19680;DHT22;9989;48.962;9.182;2023-05-10T08:53:00;17.60;99.90
19680;DHT22;9989;48.962;9.182;2023-05-10T08:55:29;17.70;99.90
19680;DHT22;9989;48.962;9.182;2023-05-10T08:57:55;17.90;99.90
19680;DHT22;9989;48.962;9.182;2023-05-10T09:00:21;18.10;99.90
19680;DHT22;9989;48.962;9.182;2023-05-10T09:02:49;18.20;99.90
19680;DHT22;9989;48.962;9.182;2023-05-10T09:05:15;18.20;99.90
19680;DHT22;9989;48.962;9.182;2023-05-10T09:07:43;18.20;99.90
19680;DHT22;9989;48.962;9.182;2023-05-10T09:10:09;18.20;99.90
19680;DHT22;9989;48.962;9.182;2023-05-10T09:12:36;18.10;99.90
19680;DHT22;9989;48.962;9.182;2023-05-10T09:15:02;17.90;99.90
19680;DHT22;9989;48.962;9.182;2023-05-10T09:17:29;17.80;99.90
19680;DHT22;9989;48.962;9.182;2023-05-10T09:20:03;17.70;99.90
19680;DHT22;9989;48.962;9.182;2023-05-10T09:22:30;17.50;99.90
19680;DHT22;9989;48.962;9.182;2023-05-10T09:25:15;17.40;99.90
19680;DHT22;9989;48.962;9.182;2023-05-10T09:27:44;17.20;99.90
19680;DHT22;9989;48.962;9.182;2023-05-10T09:30:11;17.10;99.90
19680;DHT22;9989;48.962;9.182;2023-05-10T09:32:42;17.00;99.90
19680;DHT22;9989;48.962;9.182;2023-05-10T09:35:10;16.90;99.90
19680;DHT22;9989;48.962;9.182;2023-05-10T09:37:36;16.90;99.90
19680;DHT22;9989;48.962;9.182;2023-05-10T09:40:06;17.00;99.90
19680;DHT22;9989;48.962;9.182;2023-05-10T09:42:33;17.20;99.90
19680;DHT22;9989;48.962;9.182;2023-05-10T09:45:05;17.30;99.90
19680;DHT22;9989;48.962;9.182;2023-05-10T09:47:35;17.60;99.90
19680;DHT22;9989;48.962;9.182;2023-05-10T09:50:02;17.90;99.90
19680;DHT22;9989;48.962;9.182;2023-05-10T09:52:54;18.10;99.90
19680;DHT22;9989;48.962;9.182;2023-05-10T09:55:22;18.30;99.90
19680;DHT22;9989;48.962;9.182;2023-05-10T09:57:48;18.50;99.90
19680;DHT22;9989;48.962;9.182;2023-05-10T10:00:19;18.60;99.90
19680;DHT22;9989;48.962;9.182;2023-05-10T10:02:58;18.80;99.90
19680;DHT22;9989;48.962;9.182;2023-05-10T10:05:35;19.00;99.90
19680;DHT22;9989;48.962;9.182;2023-05-10T10:08:03;19.20;99.90
19680;DHT22;9989;48.962;9.182;2023-05-10T10:10:31;19.40;99.90
19680;DHT22;9989;48.962;9.182;2023-05-10T10:12:57;19.60;99.90
19680;DHT22;9989;48.962;9.182;2023-05-10T10:15:23;19.60;99.90
19680;DHT22;9989;48.962;9.182;2023-05-10T10:17:51;19.60;99.90
19680;DHT22;9989;48.962;9.182;2023-05-10T10:20:18;19.80;99.90
19680;DHT22;9989;48.962;9.182;2023-05-10T10:22:44;19.90;99.90
19680;DHT22;9989;48.962;9.182;2023-05-10T10:25:14;20.10;99.90
19680;DHT22;9989;48.962;9.182;2023-05-10T10:28:02;20.30;99.90
19680;DHT22;9989;48.962;9.182;2023-05-10T10:35:29;20.40;99.90
19680;DHT22;9989;48.962;9.182;2023-05-10T10:37:56;20.30;99.90
19680;DHT22;9989;48.962;9.182;2023-05-10T10:42:52;20.30;99.90
19680;DHT22;9989;48.962;9.182;2023-05-10T10:45:19;20.40;99.90
19680;DHT22;9989;48.962;9.182;2023-05-10T10:47:45;20.50;99.90
19680;DHT22;9989;48.962;9.182;2023-05-10T10:50:11;20.50;99.90
19680;DHT22;9989;48.962;9.182;2023-05-10T10:52:45;20.60;99.90
19680;DHT22;9989;48.962;9.182;2023-05-10T10:55:20;20.60;99.90
19680;DHT22;9989;48.962;9.182;2023-05-10T10:57:56;20.60;99.90
19680;DHT22;9989;48.962;9.182;2023-05-10T11:00:34;20.40;99.90
19680;DHT22;9989;48.962;9.182;2023-05-10T11:03:09;20.00;99.90
19680;DHT22;9989;48.962;9.182;2023-05-10T11:08:16;19.40;99.90
19680;DHT22;9989;48.962;9.182;2023-05-10T11:10:54;19.40;99.90
19680;DHT22;9989;48.962;9.182;2023-05-10T11:16:23;19.70;99.90
19680;DHT22;9989;48.962;9.182;2023-05-10T11:19:03;19.90;99.90
19680;DHT22;9989;48.962;9.182;2023-05-10T11:21:30;20.00;99.90
19680;DHT22;9989;48.962;9.182;2023-05-10T11:23:57;20.10;99.90
19680;DHT22;9989;48.962;9.182;2023-05-10T11:26:24;20.20;99.90
19680;DHT22;9989;48.962;9.182;2023-05-10T11:28:53;20.10;99.90
19680;DHT22;9989;48.962;9.182;2023-05-10T11:31:22;20.00;99.90
19680;DHT22;9989;48.962;9.182;2023-05-10T11:33:53;19.90;99.90
19680;DHT22;9989;48.962;9.182;2023-05-10T11:36:21;19.90;99.90
19680;DHT22;9989;48.962;9.182;2023-05-10T11:38:48;19.90;99.90
19680;DHT22;9989;48.962;9.182;2023-05-10T11:41:17;19.80;99.90
19680;DHT22;9989;48.962;9.182;2023-05-10T11:43:43;19.70;99.90
19680;DHT22;9989;48.962;9.182;2023-05-10T11:46:12;19.70;99.90
19680;DHT22;9989;48.962;9.182;2023-05-10T11:48:41;19.80;99.90
19680;DHT22;9989;48.962;9.182;2023-05-10T11:51:08;19.80;99.90
19680;DHT22;9989;48.962;9.182;2023-05-10T11:53:34;19.90;99.90
19680;DHT22;9989;48.962;9.182;2023-05-10T11:56:04;20.00;99.90
19680;DHT22;9989;48.962;9.182;2023-05-10T11:58:31;20.20;99.90
19680;DHT22;9989;48.962;9.182;2023-05-10T12:00:58;20.20;99.90
19680;DHT22;9989;48.962;9.182;2023-05-10T12:03:25;20.30;99.90
19680;DHT22;9989;48.962;9.182;2023-05-10T12:05:51;20.40;99.90
19680;DHT22;9989;48.962;9.182;2023-05-10T12:08:21;20.40;99.90
19680;DHT22;9989;48.962;9.182;2023-05-10T12:10:47;20.50;99.90
19680;DHT22;9989;48.962;9.182;2023-05-10T12:13:14;20.50;99.90
19680;DHT22;9989;48.962;9.182;2023-05-10T12:15:41;20.50;99.90
19680;DHT22;9989;48.962;9.182;2023-05-10T12:18:14;20.60;99.90
19680;DHT22;9989;48.962;9.182;2023-05-10T12:20:40;20.60;99.90
19680;DHT22;9989;48.962;9.182;2023-05-10T12:23:09;20.50;99.90
19680;DHT22;9989;48.962;9.182;2023-05-10T12:25:36;20.50;99.90
19680;DHT22;9989;48.962;9.182;2023-05-10T12:28:07;20.40;99.90
19680;DHT22;9989;48.962;9.182;2023-05-10T12:30:34;20.30;99.90
19680;DHT22;9989;48.962;9.182;2023-05-10T12:33:02;20.10;99.90
19680;DHT22;9989;48.962;9.182;2023-05-10T12:35:31;19.90;99.90
19680;DHT22;9989;48.962;9.182;2023-05-10T12:37:57;19.50;99.90
19680;DHT22;9989;48.962;9.182;2023-05-10T12:40:23;19.10;99.90
19680;DHT22;9989;48.962;9.182;2023-05-10T12:42:49;18.90;99.90
19680;DHT22;9989;48.962;9.182;2023-05-10T12:45:17;18.60;99.90
19680;DHT22;9989;48.962;9.182;2023-05-10T12:47:43;18.60;99.90
19680;DHT22;9989;48.962;9.182;2023-05-10T12:50:09;18.70;99.90
19680;DHT22;9989;48.962;9.182;2023-05-10T12:52:35;18.80;99.90
19680;DHT22;9989;48.962;9.182;2023-05-10T12:55:01;19.00;99.90
19680;DHT22;9989;48.962;9.182;2023-05-10T12:57:27;19.10;99.90
19680;DHT22;9989;48.962;9.182;2023-05-10T12:59:54;19.20;99.90
19680;DHT22;9989;48.962;9.182;2023-05-10T13:02:20;19.20;99.90
19680;DHT22;9989;48.962;9.182;2023-05-10T13:04:48;19.20;99.90
19680;DHT22;9989;48.962;9.182;2023-05-10T13:07:14;19.20;99.90
19680;DHT22;9989;48.962;9.182;2023-05-10T13:09:39;19.20;99.90
19680;DHT22;9989;48.962;9.182;2023-05-10T13:12:05;19.30;99.90
19680;DHT22;9989;48.962;9.182;2023-05-10T13:14:31;19.30;99.90
19680;DHT22;9989;48.962;9.182;2023-05-10T13:16:57;19.10;99.90
19680;DHT22;9989;48.962;9.182;2023-05-10T13:19:22;19.10;99.90
19680;DHT22;9989;48.962;9.182;2023-05-10T13:21:48;18.90;99.90
19680;DHT22;9989;48.962;9.182;2023-05-10T13:24:14;18.70;99.90
19680;DHT22;9989;48.962;9.182;2023-05-10T13:26:40;18.50;99.90
19680;DHT22;9989;48.962;9.182;2023-05-10T13:29:06;18.60;99.90
19680;DHT22;9989;48.962;9.182;2023-05-10T13:31:33;18.70;99.90
19680;DHT22;9989;48.962;9.182;2023-05-10T13:33:58;18.70;99.90
19680;DHT22;9989;48.962;9.182;2023-05-10T13:36:24;18.80;99.90
19680;DHT22;9989;48.962;9.182;2023-05-10T13:38:49;19.00;99.90
19680;DHT22;9989;48.962;9.182;2023-05-10T13:41:15;19.00;99.90
19680;DHT22;9989;48.962;9.182;2023-05-10T13:43:41;19.10;99.90
19680;DHT22;9989;48.962;9.182;2023-05-10T13:46:06;19.00;99.90
19680;DHT22;9989;48.962;9.182;2023-05-10T13:48:32;18.90;99.90
19680;DHT22;9989;48.962;9.182;2023-05-10T13:50:58;18.80;99.90
19680;DHT22;9989;48.962;9.182;2023-05-10T13:53:23;18.80;99.90
19680;DHT22;9989;48.962;9.182;2023-05-10T13:55:49;19.00;99.90
19680;DHT22;9989;48.962;9.182;2023-05-10T13:58:15;19.10;99.90
19680;DHT22;9989;48.962;9.182;2023-05-10T14:00:40;19.10;99.90
19680;DHT22;9989;48.962;9.182;2023-05-10T14:03:06;19.10;99.90
19680;DHT22;9989;48.962;9.182;2023-05-10T14:05:32;19.20;99.90
19680;DHT22;9989;48.962;9.182;2023-05-10T14:07:58;19.30;99.90
19680;DHT22;9989;48.962;9.182;2023-05-10T14:10:24;19.30;99.90
19680;DHT22;9989;48.962;9.182;2023-05-10T14:12:50;19.40;99.90
19680;DHT22;9989;48.962;9.182;2023-05-10T14:15:16;19.40;99.90
19680;DHT22;9989;48.962;9.182;2023-05-10T14:17:41;19.30;99.90
19680;DHT22;9989;48.962;9.182;2023-05-10T14:20:07;19.30;99.90
19680;DHT22;9989;48.962;9.182;2023-05-10T14:22:34;19.20;99.90
19680;DHT22;9989;48.962;9.182;2023-05-10T14:25:00;19.20;99.90
19680;DHT22;9989;48.962;9.182;2023-05-10T14:27:25;19.20;99.90
19680;DHT22;9989;48.962;9.182;2023-05-10T14:29:51;19.10;99.90
19680;DHT22;9989;48.962;9.182;2023-05-10T14:32:18;19.10;99.90
19680;DHT22;9989;48.962;9.182;2023-05-10T14:34:44;19.00;99.90
19680;DHT22;9989;48.962;9.182;2023-05-10T14:37:11;18.90;98.30
19680;DHT22;9989;48.962;9.182;2023-05-10T14:39:37;18.60;98.30
19680;DHT22;9989;48.962;9.182;2023-05-10T14:42:03;18.50;99.40
19680;DHT22;9989;48.962;9.182;2023-05-10T14:44:29;18.50;99.80
19680;DHT22;9989;48.962;9.182;2023-05-10T14:46:55;18.50;99.60
19680;DHT22;9989;48.962;9.182;2023-05-10T14:49:22;18.40;99.80
19680;DHT22;9989;48.962;9.182;2023-05-10T14:51:48;18.50;99.90
19680;DHT22;9989;48.962;9.182;2023-05-10T14:54:14;18.50;99.90
19680;DHT22;9989;48.962;9.182;2023-05-10T14:56:39;18.60;99.90
19680;DHT22;9989;48.962;9.182;2023-05-10T14:59:07;18.80;99.90
19680;DHT22;9989;48.962;9.182;2023-05-10T15:01:33;18.90;99.90
19680;DHT22;9989;48.962;9.182;2023-05-10T15:04:00;19.00;99.90
19680;DHT22;9989;48.962;9.182;2023-05-10T15:06:33;19.10;99.90
19680;DHT22;9989;48.962;9.182;2023-05-10T15:08:59;19.20;99.90
19680;DHT22;9989;48.962;9.182;2023-05-10T15:11:25;19.30;99.70
19680;DHT22;9989;48.962;9.182;2023-05-10T15:13:51;19.40;99.10
19680;DHT22;9989;48.962;9.182;2023-05-10T15:16:16;19.50;99.40
19680;DHT22;9989;48.962;9.182;2023-05-10T15:18:42;19.50;99.50
19680;DHT22;9989;48.962;9.182;2023-05-10T15:21:08;19.60;99.30
19680;DHT22;9989;48.962;9.182;2023-05-10T15:23:34;19.60;99.20
19680;DHT22;9989;48.962;9.182;2023-05-10T15:26:00;19.70;99.20
19680;DHT22;9989;48.962;9.182;2023-05-10T15:28:26;19.70;98.10
19680;DHT22;9989;48.962;9.182;2023-05-10T15:30:51;19.70;97.80
19680;DHT22;9989;48.962;9.182;2023-05-10T15:33:17;19.70;98.00
19680;DHT22;9989;48.962;9.182;2023-05-10T15:35:43;19.70;97.50
19680;DHT22;9989;48.962;9.182;2023-05-10T15:38:09;19.70;96.70
19680;DHT22;9989;48.962;9.182;2023-05-10T15:40:35;19.60;96.60
19680;DHT22;9989;48.962;9.182;2023-05-10T15:43:01;19.60;96.90
19680;DHT22;9989;48.962;9.182;2023-05-10T15:45:26;19.50;97.20
19680;DHT22;9989;48.962;9.182;2023-05-10T15:47:52;19.50;97.60
19680;DHT22;9989;48.962;9.182;2023-05-10T15:50:18;19.50;96.80
19680;DHT22;9989;48.962;9.182;2023-05-10T15:52:44;19.50;96.90
19680;DHT22;9989;48.962;9.182;2023-05-10T15:55:09;19.50;97.00
19680;DHT22;9989;48.962;9.182;2023-05-10T15:57:41;19.40;96.80
19680;DHT22;9989;48.962;9.182;2023-05-10T16:00:11;19.40;97.20
19680;DHT22;9989;48.962;9.182;2023-05-10T16:02:37;19.30;97.50
19680;DHT22;9989;48.962;9.182;2023-05-10T16:05:03;19.30;96.90
19680;DHT22;9989;48.962;9.182;2023-05-10T16:07:29;19.30;97.60
19680;DHT22;9989;48.962;9.182;2023-05-10T16:09:54;19.30;96.70
19680;DHT22;9989;48.962;9.182;2023-05-10T16:12:20;19.20;97.00